sensor_id;sensor_type;location;lat;lon;timestamp;pressure;altitude;pressure_sealevel;temperature;humidity
29815;BME280;16708;50.426;7.664;2022-07-25T00:02:59;984.58;;;21.88;60.30
29815;BME280;16708;50.426;7.664;2022-07-25T00:07:53;984.35;;;21.72;60.76
29815;BME280;16708;50.426;7.664;2022-07-25T00:12:48;984.34;;;21.60;63.74
29815;BME280;16708;50.426;7.664;2022-07-25T00:17:43;984.30;;;21.41;64.54
29815;BME280;16708;50.426;7.664;2022-07-25T00:22:37;984.18;;;21.26;65.64
29815;BME280;16708;50.426;7.664;2022-07-25T00:27:31;984.14;;;21.21;65.80
29815;BME280;16708;50.426;7.664;2022-07-25T00:32:25;984.15;;;21.27;66.63
29815;BME280;16708;50.426;7.664;2022-07-25T00:37:20;984.19;;;21.25;66.51
29815;BME280;16708;50.426;7.664;2022-07-25T00:42:15;984.16;;;21.10;66.58
29815;BME280;16708;50.426;7.664;2022-07-25T00:47:09;984.24;;;21.08;66.66
29815;BME280;16708;50.426;7.664;2022-07-25T00:52:04;984.12;;;20.96;68.41
29815;BME280;16708;50.426;7.664;2022-07-25T00:56:58;984.08;;;20.81;68.12
29815;BME280;16708;50.426;7.664;2022-07-25T01:01:52;984.12;;;20.77;67.86
29815;BME280;16708;50.426;7.664;2022-07-25T01:06:47;984.11;;;20.74;69.05
29815;BME280;16708;50.426;7.664;2022-07-25T01:11:41;984.10;;;20.67;68.79
29815;BME280;16708;50.426;7.664;2022-07-25T01:16:36;983.91;;;20.62;69.22
29815;BME280;16708;50.426;7.664;2022-07-25T01:21:31;983.94;;;20.59;69.48
29815;BME280;16708;50.426;7.664;2022-07-25T01:26:25;983.88;;;20.53;69.97
29815;BME280;16708;50.426;7.664;2022-07-25T01:31:19;983.75;;;20.40;71.07
29815;BME280;16708;50.426;7.664;2022-07-25T01:36:14;983.78;;;20.25;71.87
29815;BME280;16708;50.426;7.664;2022-07-25T01:41:09;983.75;;;20.18;73.06
29815;BME280;16708;50.426;7.664;2022-07-25T01:46:04;983.65;;;20.18;70.76
29815;BME280;16708;50.426;7.664;2022-07-25T01:50:58;983.68;;;20.05;73.02
29815;BME280;16708;50.426;7.664;2022-07-25T01:55:53;983.69;;;19.98;73.95
29815;BME280;16708;50.426;7.664;2022-07-25T02:00:48;983.73;;;19.83;75.43
29815;BME280;16708;50.426;7.664;2022-07-25T02:05:42;983.69;;;19.65;77.11
29815;BME280;16708;50.426;7.664;2022-07-25T02:10:37;983.58;;;19.56;77.42
29815;BME280;16708;50.426;7.664;2022-07-25T02:15:32;983.63;;;19.52;77.47
29815;BME280;16708;50.426;7.664;2022-07-25T02:20:26;983.58;;;19.52;77.15
29815;BME280;16708;50.426;7.664;2022-07-25T02:25:21;983.47;;;19.47;77.59
29815;BME280;16708;50.426;7.664;2022-07-25T02:30:16;983.40;;;19.43;77.06
29815;BME280;16708;50.426;7.664;2022-07-25T02:35:10;983.36;;;19.47;76.96
29815;BME280;16708;50.426;7.664;2022-07-25T02:40:05;983.31;;;19.46;77.06
29815;BME280;16708;50.426;7.664;2022-07-25T02:44:59;983.34;;;19.37;77.41
29815;BME280;16708;50.426;7.664;2022-07-25T02:49:53;983.29;;;19.41;76.57
29815;BME280;16708;50.426;7.664;2022-07-25T02:54:47;983.16;;;19.25;79.42
29815;BME280;16708;50.426;7.664;2022-07-25T02:59:42;983.15;;;19.07;81.05
29815;BME280;16708;50.426;7.664;2022-07-25T03:04:36;983.14;;;18.95;82.44
29815;BME280;16708;50.426;7.664;2022-07-25T03:09:31;983.07;;;18.92;82.88
29815;BME280;16708;50.426;7.664;2022-07-25T03:14:25;982.98;;;18.78;84.46
29815;BME280;16708;50.426;7.664;2022-07-25T03:19:20;982.98;;;18.72;85.39
29815;BME280;16708;50.426;7.664;2022-07-25T03:24:15;982.94;;;18.76;84.63
29815;BME280;16708;50.426;7.664;2022-07-25T03:29:10;982.84;;;18.72;85.05
29815;BME280;16708;50.426;7.664;2022-07-25T03:34:04;982.86;;;18.71;85.49
29815;BME280;16708;50.426;7.664;2022-07-25T03:38:59;982.85;;;18.71;85.81
29815;BME280;16708;50.426;7.664;2022-07-25T03:43:54;982.88;;;18.74;83.96
29815;BME280;16708;50.426;7.664;2022-07-25T03:48:48;982.79;;;18.72;84.58
29815;BME280;16708;50.426;7.664;2022-07-25T03:53:43;982.80;;;18.82;84.08
29815;BME280;16708;50.426;7.664;2022-07-25T03:58:38;982.77;;;18.80;84.15
29815;BME280;16708;50.426;7.664;2022-07-25T04:03:31;982.68;;;18.84;84.31
29815;BME280;16708;50.426;7.664;2022-07-25T04:08:26;982.67;;;18.83;84.27
29815;BME280;16708;50.426;7.664;2022-07-25T04:13:21;982.68;;;18.95;83.91
29815;BME280;16708;50.426;7.664;2022-07-25T04:18:15;982.66;;;18.96;85.32
29815;BME280;16708;50.426;7.664;2022-07-25T04:23:09;982.54;;;19.05;84.01
29815;BME280;16708;50.426;7.664;2022-07-25T04:28:04;982.47;;;19.09;84.34
29815;BME280;16708;50.426;7.664;2022-07-25T04:32:59;982.42;;;19.12;84.94
29815;BME280;16708;50.426;7.664;2022-07-25T04:37:54;982.40;;;19.29;84.50
29815;BME280;16708;50.426;7.664;2022-07-25T04:42:49;982.33;;;19.52;83.81
29815;BME280;16708;50.426;7.664;2022-07-25T04:47:44;982.33;;;19.67;84.03
29815;BME280;16708;50.426;7.664;2022-07-25T04:52:39;982.33;;;19.90;82.21
29815;BME280;16708;50.426;7.664;2022-07-25T04:57:34;982.20;;;20.08;82.52
29815;BME280;16708;50.426;7.664;2022-07-25T05:02:27;982.21;;;20.18;83.52
29815;BME280;16708;50.426;7.664;2022-07-25T05:07:22;982.10;;;20.28;83.66
29815;BME280;16708;50.426;7.664;2022-07-25T05:12:17;982.15;;;20.45;84.72
29815;BME280;16708;50.426;7.664;2022-07-25T05:17:12;982.23;;;20.69;80.16
29815;BME280;16708;50.426;7.664;2022-07-25T05:22:06;982.22;;;20.88;79.55
29815;BME280;16708;50.426;7.664;2022-07-25T05:27:01;982.22;;;21.16;78.73
29815;BME280;16708;50.426;7.664;2022-07-25T05:31:56;982.16;;;21.44;77.53
29815;BME280;16708;50.426;7.664;2022-07-25T05:36:51;982.23;;;21.59;72.43
29815;BME280;16708;50.426;7.664;2022-07-25T05:41:46;982.25;;;21.79;71.12
29815;BME280;16708;50.426;7.664;2022-07-25T05:46:41;982.24;;;22.04;70.19
29815;BME280;16708;50.426;7.664;2022-07-25T05:51:36;982.13;;;22.32;70.06
29815;BME280;16708;50.426;7.664;2022-07-25T05:56:30;982.12;;;22.46;69.72
29815;BME280;16708;50.426;7.664;2022-07-25T06:01:25;982.12;;;22.54;68.97
29815;BME280;16708;50.426;7.664;2022-07-25T06:06:20;982.11;;;22.76;67.25
29815;BME280;16708;50.426;7.664;2022-07-25T06:11:15;982.03;;;22.83;64.58
29815;BME280;16708;50.426;7.664;2022-07-25T06:16:10;982.00;;;23.04;64.41
29815;BME280;16708;50.426;7.664;2022-07-25T06:21:05;981.93;;;23.37;65.65
29815;BME280;16708;50.426;7.664;2022-07-25T06:26:00;981.95;;;23.71;65.42
29815;BME280;16708;50.426;7.664;2022-07-25T06:30:54;981.89;;;24.04;61.62
29815;BME280;16708;50.426;7.664;2022-07-25T06:35:48;981.82;;;24.14;62.07
29815;BME280;16708;50.426;7.664;2022-07-25T06:40:43;981.80;;;24.36;60.53
29815;BME280;16708;50.426;7.664;2022-07-25T06:45:38;981.79;;;24.54;60.21
29815;BME280;16708;50.426;7.664;2022-07-25T06:50:33;981.86;;;24.76;61.53
29815;BME280;16708;50.426;7.664;2022-07-25T06:55:28;981.94;;;25.09;60.88
29815;BME280;16708;50.426;7.664;2022-07-25T07:00:23;981.78;;;25.09;60.01
29815;BME280;16708;50.426;7.664;2022-07-25T07:05:18;981.77;;;25.34;58.17
29815;BME280;16708;50.426;7.664;2022-07-25T07:10:12;981.72;;;25.57;57.65
29815;BME280;16708;50.426;7.664;2022-07-25T07:15:07;981.71;;;25.89;57.04
29815;BME280;16708;50.426;7.664;2022-07-25T07:20:02;981.67;;;26.23;56.04
29815;BME280;16708;50.426;7.664;2022-07-25T07:24:57;981.74;;;26.72;54.56
29815;BME280;16708;50.426;7.664;2022-07-25T07:29:52;981.77;;;26.75;51.82
29815;BME280;16708;50.426;7.664;2022-07-25T07:34:47;981.59;;;27.12;50.11
29815;BME280;16708;50.426;7.664;2022-07-25T07:39:42;981.65;;;27.49;51.38
29815;BME280;16708;50.426;7.664;2022-07-25T07:44:37;981.57;;;27.66;49.75
29815;BME280;16708;50.426;7.664;2022-07-25T07:49:31;981.50;;;28.01;46.99
29815;BME280;16708;50.426;7.664;2022-07-25T07:54:26;981.57;;;28.32;43.82
29815;BME280;16708;50.426;7.664;2022-07-25T07:59:21;981.39;;;29.42;42.06
29815;BME280;16708;50.426;7.664;2022-07-25T08:04:15;981.41;;;29.81;41.00
29815;BME280;16708;50.426;7.664;2022-07-25T08:09:10;981.37;;;30.16;40.02
29815;BME280;16708;50.426;7.664;2022-07-25T08:14:05;981.29;;;30.17;39.89
29815;BME280;16708;50.426;7.664;2022-07-25T08:19:00;981.41;;;29.99;40.61
29815;BME280;16708;50.426;7.664;2022-07-25T08:23:53;981.29;;;29.66;40.92
29815;BME280;16708;50.426;7.664;2022-07-25T08:28:48;981.29;;;29.55;41.38
29815;BME280;16708;50.426;7.664;2022-07-25T08:33:43;981.26;;;29.81;42.16
29815;BME280;16708;50.426;7.664;2022-07-25T08:38:38;981.22;;;29.92;40.09
29815;BME280;16708;50.426;7.664;2022-07-25T08:43:32;981.26;;;30.38;40.38
29815;BME280;16708;50.426;7.664;2022-07-25T08:48:27;981.25;;;30.05;40.19
29815;BME280;16708;50.426;7.664;2022-07-25T08:53:22;981.19;;;30.24;38.58
29815;BME280;16708;50.426;7.664;2022-07-25T08:58:17;981.18;;;31.05;37.58
29815;BME280;16708;50.426;7.664;2022-07-25T09:03:12;981.25;;;32.13;34.78
29815;BME280;16708;50.426;7.664;2022-07-25T09:13:01;981.19;;;32.25;34.55
29815;BME280;16708;50.426;7.664;2022-07-25T09:17:56;981.31;;;31.67;35.42
29815;BME280;16708;50.426;7.664;2022-07-25T09:22:51;981.22;;;31.74;35.05
29815;BME280;16708;50.426;7.664;2022-07-25T09:32:41;981.15;;;32.15;33.76
29815;BME280;16708;50.426;7.664;2022-07-25T09:42:31;981.03;;;32.65;34.00
29815;BME280;16708;50.426;7.664;2022-07-25T09:47:25;981.09;;;33.38;32.41
29815;BME280;16708;50.426;7.664;2022-07-25T09:52:20;981.01;;;34.19;32.02
29815;BME280;16708;50.426;7.664;2022-07-25T09:57:15;980.87;;;34.22;29.83
29815;BME280;16708;50.426;7.664;2022-07-25T10:07:06;981.00;;;33.22;31.01
29815;BME280;16708;50.426;7.664;2022-07-25T10:12:00;980.96;;;33.48;30.13
29815;BME280;16708;50.426;7.664;2022-07-25T10:16:55;981.04;;;32.27;31.77
29815;BME280;16708;50.426;7.664;2022-07-25T10:26:44;980.95;;;32.40;32.42
29815;BME280;16708;50.426;7.664;2022-07-25T10:36:34;981.11;;;36.47;27.21
29815;BME280;16708;50.426;7.664;2022-07-25T10:41:31;981.10;;;35.19;28.08
29815;BME280;16708;50.426;7.664;2022-07-25T10:46:32;981.03;;;32.63;30.75
29815;BME280;16708;50.426;7.664;2022-07-25T10:51:20;981.11;;;32.40;32.32
29815;BME280;16708;50.426;7.664;2022-07-25T10:56:14;981.37;;;31.20;34.44
29815;BME280;16708;50.426;7.664;2022-07-25T11:01:07;981.25;;;30.84;35.03
29815;BME280;16708;50.426;7.664;2022-07-25T11:06:02;981.21;;;30.65;36.14
29815;BME280;16708;50.426;7.664;2022-07-25T11:10:56;981.11;;;30.27;36.69
29815;BME280;16708;50.426;7.664;2022-07-25T11:15:50;981.08;;;29.88;37.09
29815;BME280;16708;50.426;7.664;2022-07-25T11:20:45;981.26;;;29.04;47.49
29815;BME280;16708;50.426;7.664;2022-07-25T11:25:39;981.29;;;27.62;60.23
29815;BME280;16708;50.426;7.664;2022-07-25T11:30:34;981.32;;;27.04;59.76
29815;BME280;16708;50.426;7.664;2022-07-25T11:35:28;981.32;;;27.15;58.25
29815;BME280;16708;50.426;7.664;2022-07-25T11:40:22;981.39;;;27.39;58.63
29815;BME280;16708;50.426;7.664;2022-07-25T11:45:17;981.38;;;27.39;52.38
29815;BME280;16708;50.426;7.664;2022-07-25T11:50:12;981.41;;;27.47;53.45
29815;BME280;16708;50.426;7.664;2022-07-25T11:55:07;981.49;;;27.43;56.72
29815;BME280;16708;50.426;7.664;2022-07-25T12:00:01;981.68;;;27.28;60.18
29815;BME280;16708;50.426;7.664;2022-07-25T12:04:56;981.57;;;26.84;59.35
29815;BME280;16708;50.426;7.664;2022-07-25T12:09:50;981.62;;;27.14;58.56
29815;BME280;16708;50.426;7.664;2022-07-25T12:14:45;981.62;;;27.76;63.62
29815;BME280;16708;50.426;7.664;2022-07-25T12:19:41;981.50;;;28.56;60.03
29815;BME280;16708;50.426;7.664;2022-07-25T12:24:36;981.32;;;29.70;60.86
29815;BME280;16708;50.426;7.664;2022-07-25T12:29:34;981.06;;;29.96;56.79
29815;BME280;16708;50.426;7.664;2022-07-25T12:34:27;981.11;;;29.75;56.25
29815;BME280;16708;50.426;7.664;2022-07-25T12:39:22;981.07;;;30.24;53.42
29815;BME280;16708;50.426;7.664;2022-07-25T12:44:16;981.01;;;32.23;44.40
29815;BME280;16708;50.426;7.664;2022-07-25T12:49:12;980.99;;;31.32;42.09
29815;BME280;16708;50.426;7.664;2022-07-25T12:54:07;980.94;;;33.54;39.79
29815;BME280;16708;50.426;7.664;2022-07-25T12:59:03;980.90;;;34.73;36.22
29815;BME280;16708;50.426;7.664;2022-07-25T13:03:59;980.86;;;34.52;33.27
29815;BME280;16708;50.426;7.664;2022-07-25T13:08:55;980.99;;;35.29;33.62
29815;BME280;16708;50.426;7.664;2022-07-25T13:13:50;980.75;;;34.23;35.78
29815;BME280;16708;50.426;7.664;2022-07-25T13:18:44;980.71;;;31.21;42.83
29815;BME280;16708;50.426;7.664;2022-07-25T13:23:38;980.69;;;32.20;39.86
29815;BME280;16708;50.426;7.664;2022-07-25T13:28:36;980.67;;;36.04;33.00
29815;BME280;16708;50.426;7.664;2022-07-25T13:33:29;980.59;;;35.68;31.93
29815;BME280;16708;50.426;7.664;2022-07-25T13:38:25;980.42;;;36.60;30.47
29815;BME280;16708;50.426;7.664;2022-07-25T13:43:21;980.38;;;34.54;32.43
29815;BME280;16708;50.426;7.664;2022-07-25T13:48:15;980.38;;;32.80;36.88
29815;BME280;16708;50.426;7.664;2022-07-25T13:53:09;980.25;;;31.38;37.58
29815;BME280;16708;50.426;7.664;2022-07-25T13:58:02;980.26;;;30.81;38.98
29815;BME280;16708;50.426;7.664;2022-07-25T14:02:55;980.40;;;31.40;37.10
29815;BME280;16708;50.426;7.664;2022-07-25T14:07:49;980.37;;;31.54;36.65
29815;BME280;16708;50.426;7.664;2022-07-25T14:12:44;980.51;;;31.25;37.69
29815;BME280;16708;50.426;7.664;2022-07-25T14:17:38;980.51;;;31.29;35.46
29815;BME280;16708;50.426;7.664;2022-07-25T14:22:32;980.53;;;34.31;30.58
29815;BME280;16708;50.426;7.664;2022-07-25T14:27:28;980.64;;;35.31;31.67
29815;BME280;16708;50.426;7.664;2022-07-25T14:32:25;980.81;;;36.53;30.72
29815;BME280;16708;50.426;7.664;2022-07-25T14:37:21;980.89;;;33.71;35.59
29815;BME280;16708;50.426;7.664;2022-07-25T14:42:16;980.90;;;35.01;34.11
29815;BME280;16708;50.426;7.664;2022-07-25T14:47:11;981.10;;;34.23;32.82
29815;BME280;16708;50.426;7.664;2022-07-25T14:52:07;981.11;;;32.13;36.59
29815;BME280;16708;50.426;7.664;2022-07-25T14:57:01;981.10;;;32.42;36.30
29815;BME280;16708;50.426;7.664;2022-07-25T15:01:55;981.02;;;32.18;36.44
29815;BME280;16708;50.426;7.664;2022-07-25T15:06:49;981.03;;;29.95;42.59
29815;BME280;16708;50.426;7.664;2022-07-25T15:11:43;981.04;;;28.96;45.03
29815;BME280;16708;50.426;7.664;2022-07-25T15:16:36;981.03;;;28.27;47.26
29815;BME280;16708;50.426;7.664;2022-07-25T15:21:30;981.07;;;27.95;48.36
29815;BME280;16708;50.426;7.664;2022-07-25T15:26:24;981.10;;;28.21;49.46
29815;BME280;16708;50.426;7.664;2022-07-25T15:31:19;981.23;;;31.37;44.24
29815;BME280;16708;50.426;7.664;2022-07-25T15:36:14;981.09;;;31.00;43.65
29815;BME280;16708;50.426;7.664;2022-07-25T15:41:09;981.13;;;30.17;46.09
29815;BME280;16708;50.426;7.664;2022-07-25T15:46:04;981.12;;;30.59;43.58
29815;BME280;16708;50.426;7.664;2022-07-25T15:50:59;981.28;;;33.24;37.12
29815;BME280;16708;50.426;7.664;2022-07-25T15:55:55;981.33;;;34.64;33.21
29815;BME280;16708;50.426;7.664;2022-07-25T16:00:51;981.41;;;30.56;41.49
29815;BME280;16708;50.426;7.664;2022-07-25T16:05:45;981.50;;;29.79;42.74
29815;BME280;16708;50.426;7.664;2022-07-25T16:10:39;981.62;;;29.27;44.42
29815;BME280;16708;50.426;7.664;2022-07-25T16:15:33;981.68;;;29.07;45.02
29815;BME280;16708;50.426;7.664;2022-07-25T16:20:27;981.74;;;27.95;46.46
29815;BME280;16708;50.426;7.664;2022-07-25T16:25:21;981.78;;;27.64;46.42
29815;BME280;16708;50.426;7.664;2022-07-25T16:30:15;981.88;;;27.82;47.26
29815;BME280;16708;50.426;7.664;2022-07-25T16:35:10;981.87;;;27.60;47.59
29815;BME280;16708;50.426;7.664;2022-07-25T16:40:04;981.91;;;27.27;47.24
29815;BME280;16708;50.426;7.664;2022-07-25T16:44:59;981.94;;;26.64;48.39
29815;BME280;16708;50.426;7.664;2022-07-25T16:49:54;982.08;;;26.84;48.87
29815;BME280;16708;50.426;7.664;2022-07-25T16:54:48;982.14;;;26.42;50.14
29815;BME280;16708;50.426;7.664;2022-07-25T16:59:43;982.27;;;26.13;51.87
29815;BME280;16708;50.426;7.664;2022-07-25T17:04:37;982.23;;;25.76;53.44
29815;BME280;16708;50.426;7.664;2022-07-25T17:09:32;982.50;;;25.51;55.97
29815;BME280;16708;50.426;7.664;2022-07-25T17:14:27;982.43;;;25.38;56.48
29815;BME280;16708;50.426;7.664;2022-07-25T17:19:22;982.53;;;25.12;58.30
29815;BME280;16708;50.426;7.664;2022-07-25T17:24:16;982.60;;;24.90;60.37
29815;BME280;16708;50.426;7.664;2022-07-25T17:29:11;982.52;;;25.04;59.81
29815;BME280;16708;50.426;7.664;2022-07-25T17:34:06;982.69;;;24.88;60.43
29815;BME280;16708;50.426;7.664;2022-07-25T17:39:00;982.64;;;24.68;62.19
29815;BME280;16708;50.426;7.664;2022-07-25T17:43:55;982.67;;;24.51;63.62
29815;BME280;16708;50.426;7.664;2022-07-25T17:48:50;982.59;;;24.72;63.41
29815;BME280;16708;50.426;7.664;2022-07-25T17:53:43;982.67;;;24.81;62.67
29815;BME280;16708;50.426;7.664;2022-07-25T17:58:37;982.63;;;24.91;62.46
29815;BME280;16708;50.426;7.664;2022-07-25T18:03:32;982.64;;;25.17;60.23
29815;BME280;16708;50.426;7.664;2022-07-25T18:08:27;982.62;;;25.34;60.21
29815;BME280;16708;50.426;7.664;2022-07-25T18:13:22;982.61;;;25.45;60.60
29815;BME280;16708;50.426;7.664;2022-07-25T18:18:17;982.68;;;25.17;61.44
29815;BME280;16708;50.426;7.664;2022-07-25T18:23:11;982.62;;;25.07;62.67
29815;BME280;16708;50.426;7.664;2022-07-25T18:28:06;982.66;;;25.06;61.87
29815;BME280;16708;50.426;7.664;2022-07-25T18:33:00;982.72;;;24.98;61.81
29815;BME280;16708;50.426;7.664;2022-07-25T18:37:55;982.63;;;24.88;62.20
29815;BME280;16708;50.426;7.664;2022-07-25T18:42:49;982.73;;;24.89;62.03
29815;BME280;16708;50.426;7.664;2022-07-25T18:47:43;982.68;;;24.77;59.75
29815;BME280;16708;50.426;7.664;2022-07-25T18:52:37;982.70;;;24.67;54.56
29815;BME280;16708;50.426;7.664;2022-07-25T18:57:32;982.79;;;24.82;51.87
29815;BME280;16708;50.426;7.664;2022-07-25T19:02:27;982.80;;;24.45;51.96
29815;BME280;16708;50.426;7.664;2022-07-25T19:07:22;982.78;;;24.29;50.89
29815;BME280;16708;50.426;7.664;2022-07-25T19:12:16;982.85;;;24.14;50.90
29815;BME280;16708;50.426;7.664;2022-07-25T19:17:11;982.93;;;23.97;52.13
29815;BME280;16708;50.426;7.664;2022-07-25T19:22:05;983.03;;;23.86;53.52
29815;BME280;16708;50.426;7.664;2022-07-25T19:26:59;983.18;;;23.80;54.81
29815;BME280;16708;50.426;7.664;2022-07-25T19:31:54;983.18;;;23.55;56.18
29815;BME280;16708;50.426;7.664;2022-07-25T19:36:48;983.22;;;23.51;56.82
29815;BME280;16708;50.426;7.664;2022-07-25T19:41:42;983.26;;;23.45;57.16
29815;BME280;16708;50.426;7.664;2022-07-25T19:46:37;983.41;;;23.35;57.56
29815;BME280;16708;50.426;7.664;2022-07-25T19:51:32;983.37;;;23.21;59.34
29815;BME280;16708;50.426;7.664;2022-07-25T19:56:27;983.51;;;23.13;58.84
29815;BME280;16708;50.426;7.664;2022-07-25T20:01:21;983.50;;;23.14;58.88
29815;BME280;16708;50.426;7.664;2022-07-25T20:06:15;983.56;;;23.10;59.36
29815;BME280;16708;50.426;7.664;2022-07-25T20:11:09;983.57;;;22.94;60.35
29815;BME280;16708;50.426;7.664;2022-07-25T20:16:04;983.61;;;22.75;60.27
29815;BME280;16708;50.426;7.664;2022-07-25T20:20:58;983.73;;;22.59;61.44
29815;BME280;16708;50.426;7.664;2022-07-25T20:25:53;983.77;;;22.46;61.99
29815;BME280;16708;50.426;7.664;2022-07-25T20:30:46;983.88;;;22.41;62.61
29815;BME280;16708;50.426;7.664;2022-07-25T20:35:40;983.91;;;22.20;63.60
29815;BME280;16708;50.426;7.664;2022-07-25T20:40:35;983.93;;;22.02;64.41
29815;BME280;16708;50.426;7.664;2022-07-25T20:45:30;984.07;;;21.90;64.71
29815;BME280;16708;50.426;7.664;2022-07-25T20:50:24;984.02;;;21.71;65.94
29815;BME280;16708;50.426;7.664;2022-07-25T20:55:18;984.11;;;21.44;67.60
29815;BME280;16708;50.426;7.664;2022-07-25T21:00:13;984.25;;;21.32;67.49
29815;BME280;16708;50.426;7.664;2022-07-25T21:05:07;984.28;;;21.47;65.04
29815;BME280;16708;50.426;7.664;2022-07-25T21:10:02;984.44;;;21.34;66.20
29815;BME280;16708;50.426;7.664;2022-07-25T21:14:56;984.44;;;20.93;68.49
29815;BME280;16708;50.426;7.664;2022-07-25T21:19:51;984.55;;;20.67;70.66
29815;BME280;16708;50.426;7.664;2022-07-25T21:24:45;984.62;;;20.55;70.86
29815;BME280;16708;50.426;7.664;2022-07-25T21:29:40;984.72;;;20.45;71.28
29815;BME280;16708;50.426;7.664;2022-07-25T21:34:33;984.80;;;20.40;69.52
29815;BME280;16708;50.426;7.664;2022-07-25T21:39:28;984.78;;;20.35;70.49
29815;BME280;16708;50.426;7.664;2022-07-25T21:44:23;984.92;;;20.21;71.32
29815;BME280;16708;50.426;7.664;2022-07-25T21:49:17;984.99;;;20.04;72.12
29815;BME280;16708;50.426;7.664;2022-07-25T21:54:11;985.03;;;19.99;71.06
29815;BME280;16708;50.426;7.664;2022-07-25T21:59:06;985.03;;;19.80;73.12
29815;BME280;16708;50.426;7.664;2022-07-25T22:04:00;985.14;;;19.83;71.48
29815;BME280;16708;50.426;7.664;2022-07-25T22:08:55;985.22;;;19.80;71.22
29815;BME280;16708;50.426;7.664;2022-07-25T22:13:50;985.23;;;19.51;73.48
29815;BME280;16708;50.426;7.664;2022-07-25T22:18:44;985.31;;;19.35;74.69
29815;BME280;16708;50.426;7.664;2022-07-25T22:23:38;985.27;;;19.31;75.38
29815;BME280;16708;50.426;7.664;2022-07-25T22:28:32;985.36;;;19.14;76.08
29815;BME280;16708;50.426;7.664;2022-07-25T22:33:27;985.33;;;19.07;75.98
29815;BME280;16708;50.426;7.664;2022-07-25T22:38:22;985.32;;;19.03;77.08
29815;BME280;16708;50.426;7.664;2022-07-25T22:43:15;985.27;;;19.15;76.39
29815;BME280;16708;50.426;7.664;2022-07-25T22:48:10;985.33;;;19.07;76.92
29815;BME280;16708;50.426;7.664;2022-07-25T22:53:04;985.40;;;18.92;76.34
29815;BME280;16708;50.426;7.664;2022-07-25T22:57:59;985.52;;;18.75;77.49
29815;BME280;16708;50.426;7.664;2022-07-25T23:02:54;985.48;;;18.68;78.58
29815;BME280;16708;50.426;7.664;2022-07-25T23:07:48;985.54;;;18.70;76.56
29815;BME280;16708;50.426;7.664;2022-07-25T23:12:43;985.50;;;18.82;77.49
29815;BME280;16708;50.426;7.664;2022-07-25T23:17:37;985.35;;;18.92;75.00
29815;BME280;16708;50.426;7.664;2022-07-25T23:22:32;985.31;;;18.91;76.38
29815;BME280;16708;50.426;7.664;2022-07-25T23:27:27;985.36;;;18.80;76.76
29815;BME280;16708;50.426;7.664;2022-07-25T23:32:21;985.47;;;18.83;75.95
29815;BME280;16708;50.426;7.664;2022-07-25T23:37:15;985.39;;;18.82;74.12
29815;BME280;16708;50.426;7.664;2022-07-25T23:42:10;985.33;;;18.81;74.25
29815;BME280;16708;50.426;7.664;2022-07-25T23:47:05;985.30;;;18.76;75.20
29815;BME280;16708;50.426;7.664;2022-07-25T23:51:59;985.32;;;18.63;75.20
29815;BME280;16708;50.426;7.664;2022-07-25T23:56:54;985.32;;;18.50;76.49
